Meteo Giornale » Osservazioni meteo Francia » Morlaix-Ploujean
ore: 22:00 - Osservazioni Meteo Morlaix-Ploujean
Lat. 48° 36' N Lon. 3° 49' W Alt. 86 metri s.l.m.
15 °C
Sereno
Temp. 24 Ore
15 °C
21 °C
Ovest
7.4 Km/h
Dew point 12 °C
Umidità 82 %
Visibilità 10 Km
Il sole sorge alle ore 07:32
Il sole tramonta alle ore 20:57
| Data e Ora | Cielo e Fenomeni | T °C | DP °C | Um. % | Pres. hPa | Vis. km | Vento km/h | |
|---|---|---|---|---|---|---|---|---|
| Ieri h: 22:00 | Sereno | 15 | 12 | 82 | 1022 | 10 | O 7.4 | |
| Ieri h: 21:30 | Sereno | 16 | 12 | 77 | 1022 | 10 | N 5.5 | |
| Ieri h: 21:00 | Sereno | 16 | 12 | 77 | 1021 | 10 | O 7.4 | |
| Ieri h: 20:30 | Sereno | 17 | 12 | 72 | 1021 | 10 | O/NO 11.1 | |
| Ieri h: 20:00 | Sereno | 17 | 12 | 72 | 1021 | 10 | O/NO 11.1 | |
| Ieri h: 19:30 | Poco Nuvoloso | 18 | 13 | 72 | 1021 | 10 | O/NO 18.5 | |
| Ieri h: 19:00 | Molto Nuvoloso | 19 | 13 | 68 | 1021 | 10 | NO 16.7 | |
| Ieri h: 18:30 | Molto Nuvoloso | 19 | 13 | 68 | 1021 | 10 | NO 18.5 | |
| Ieri h: 18:00 | Molto Nuvoloso | 19 | 13 | 68 | 1021 | 10 | NO 18.5 | |
| Ieri h: 17:30 | Molto Nuvoloso | 21 | 13 | 60 | 1020 | 10 | O/NO 20.3 | |
| Ieri h: 17:00 | Molto Nuvoloso | 20 | 13 | 64 | 1020 | 10 | N/NO 22.2 | |
| Ieri h: 16:30 | Molto Nuvoloso | 21 | 13 | 60 | 1020 | 10 | NO 27.8 | |
| Ieri h: 16:00 | Molto Nuvoloso | 20 | 12 | 59 | 1020 | 10 | O/NO 25.9 | |
| Ieri h: 15:30 | Coperto | 21 | 12 | 56 | 1020 | 10 | O 25.9 | |
| Ieri h: 15:00 | Coperto | 20 | 13 | 64 | 1020 | 10 | O/NO 24 | |
| Ieri h: 14:30 | Molto Nuvoloso | 20 | 13 | 64 | 1019 | 10 | O 25.9 | |
| Ieri h: 14:00 | Molto Nuvoloso | 20 | 13 | 64 | 1019 | 10 | O/NO 25.9 | |
| Ieri h: 13:30 | Molto Nuvoloso | 20 | 14 | 68 | 1019 | 10 | O 24 | |
| Ieri h: 13:00 | Molto Nuvoloso | 20 | 14 | 68 | 1018 | 10 | O/NO 25.9 | |
| Ieri h: 12:30 | Molto Nuvoloso | 19 | 14 | 72 | 1018 | 10 | NO 22.2 | |
| Ieri h: 12:00 | Molto Nuvoloso | 20 | 15 | 72 | 1018 | 10 | O/NO 22.2 | |
| Ieri h: 11:30 | Molto Nuvoloso | 19 | 14 | 72 | 1018 | 10 | O/NO 25.9 | |
| Ieri h: 11:00 | Molto Nuvoloso | 18 | 15 | 82 | 1017 | 10 | O/NO 22.2 | |
| Ieri h: 10:30 | Coperto | 18 | 15 | 82 | 1017 | 10 | O 22.2 | |
| Ieri h: 10:00 | Coperto | 17 | 15 | 88 | 1016 | 10 | O 20.3 | |
| Ieri h: 09:30 | Coperto | 17 | 15 | 88 | 1016 | 10 | O 20.3 | |
| Ieri h: 09:00 | Molto Nuvoloso | 16 | 15 | 93 | 1016 | 10 | O 18.5 | |
| Ieri h: 08:30 | Molto Nuvoloso | 16 | 15 | 93 | 1015 | 10 | O 18.5 | |
| Ieri h: 08:00 | Molto Nuvoloso | 16 | 14 | 87 | 1015 | 10 | O/SO 22.2 | |



